Calgary International Airport

METAR CYYC TAF CYYC
-6 °C
°C
-
°C
29m
Età
09:28:49
LT
08:28
UTC
0 ft

1.000

2.000

3.000

4.000

5.000

VFR
<?= Yii::t('app', 'Wind direction') ?> <?= Yii::t('app', 'of'); ?>
180°
07:26
Alba
93%
Umidità
Taglio del vento
Chiuso/Neve
Raggio visivo RWY
Condizione della RWY
Visibilità verticale
Visibilità minima
CAVOK
Tendenza
Correzione
Rapporto speciale
29,89 inHg
QNH
METAR CYYC 250800Z 18003KT 5SM HZ SKC M06/M07 A2989 RMK HZ3 SLP180
Caligine
3 kt
3 kt
02:00
LIFR
5 kt
03:00
LIFR
3 kt
04:00
LIFR
3 kt
05:00
LIFR
3 kt
06:00
LIFR
3 kt
07:00
LIFR
3 kt
08:00
LIFR
5 kt
5 mi
Vista
No
Base nuvolosa
3 kt
Vento
metar-taf.com/CYYC

Metar-Taf.com

Decodificatore visivo

Noi e le terze parti seguiamo il tuo comportamento su internet con i cookie. Se continui, riteniamo che tu sia d'accordo con la nostra Politica sui cookie.